createdAt,value
2022-07-25T00:00:14.412Z,50.20
2022-07-25T00:01:20.722Z,50.34
2022-07-25T00:02:23.170Z,50.57
2022-07-25T00:03:25.028Z,50.85
2022-07-25T00:04:28.793Z,50.96
2022-07-25T00:05:35.853Z,50.96
2022-07-25T00:06:34.269Z,50.91
2022-07-25T00:07:36.143Z,51.09
2022-07-25T00:08:37.963Z,51.22
2022-07-25T00:09:39.893Z,51.32
2022-07-25T00:10:42.046Z,51.31
2022-07-25T00:11:43.911Z,51.33
2022-07-25T00:12:46.149Z,51.40
2022-07-25T00:13:48.007Z,51.55
2022-07-25T00:14:49.936Z,51.57
2022-07-25T00:15:51.860Z,51.57
2022-07-25T00:16:53.812Z,51.55
2022-07-25T00:17:55.873Z,51.52
2022-07-25T00:18:57.715Z,51.35
2022-07-25T00:19:59.635Z,51.17
2022-07-25T00:21:01.586Z,51.30
2022-07-25T00:22:03.425Z,51.65
2022-07-25T00:23:05.259Z,51.59
2022-07-25T00:24:07.611Z,51.66
2022-07-25T00:25:09.899Z,51.71
2022-07-25T00:26:12.064Z,51.75
2022-07-25T00:27:13.904Z,51.82
2022-07-25T00:28:15.864Z,51.81
2022-07-25T00:29:17.719Z,51.90
2022-07-25T00:30:21.448Z,51.96
2022-07-25T00:31:23.325Z,51.96
2022-07-25T00:32:25.202Z,51.95
2022-07-25T00:33:27.126Z,52.01
2022-07-25T00:34:28.962Z,51.99
2022-07-25T00:35:30.825Z,51.97
2022-07-25T00:36:32.755Z,52.02
2022-07-25T00:37:34.599Z,52.11
2022-07-25T00:38:36.470Z,52.21
2022-07-25T00:39:38.403Z,52.25
2022-07-25T00:40:40.296Z,52.22
2022-07-25T00:41:42.442Z,52.26
2022-07-25T00:42:44.367Z,52.28
2022-07-25T00:43:46.213Z,52.22
2022-07-25T00:44:48.051Z,51.98
2022-07-25T00:45:50.845Z,51.85
2022-07-25T00:46:52.873Z,51.95
2022-07-25T00:47:54.764Z,52.14
2022-07-25T00:48:56.697Z,52.37
2022-07-25T00:49:58.490Z,52.32
2022-07-25T00:51:00.519Z,52.44
2022-07-25T00:52:02.364Z,52.50
2022-07-25T00:53:04.185Z,52.56
2022-07-25T00:54:06.513Z,52.53
2022-07-25T00:55:08.648Z,52.53
2022-07-25T00:56:11.139Z,52.52
2022-07-25T00:57:13.002Z,52.57
2022-07-25T00:58:14.877Z,52.59
2022-07-25T00:59:16.700Z,52.53
2022-07-25T01:00:20.373Z,52.42
2022-07-25T01:01:22.346Z,52.57
2022-07-25T01:02:24.151Z,52.69
2022-07-25T01:03:26.072Z,52.68
2022-07-25T01:04:28.063Z,52.73
2022-07-25T01:05:29.931Z,52.76
2022-07-25T01:06:32.484Z,52.87
2022-07-25T01:07:34.338Z,52.85
2022-07-25T01:08:36.214Z,52.91
2022-07-25T01:09:38.075Z,52.88
2022-07-25T01:10:39.895Z,52.81
2022-07-25T01:11:41.793Z,52.68
2022-07-25T01:12:43.651Z,52.67
2022-07-25T01:13:45.498Z,52.74
2022-07-25T01:14:47.340Z,52.57
2022-07-25T01:15:49.254Z,52.53
2022-07-25T01:16:51.185Z,52.58
2022-07-25T01:17:53.051Z,52.57
2022-07-25T01:18:54.898Z,52.56
2022-07-25T01:19:56.916Z,52.44
2022-07-25T01:20:58.885Z,52.40
2022-07-25T01:22:00.826Z,52.33
2022-07-25T01:23:02.644Z,52.16
2022-07-25T01:24:04.715Z,52.06
2022-07-25T01:25:06.757Z,51.99
2022-07-25T01:26:08.953Z,51.89
2022-07-25T01:27:17.135Z,51.92
2022-07-25T01:28:14.487Z,51.85
2022-07-25T01:29:16.324Z,51.75
2022-07-25T01:30:18.604Z,51.69
2022-07-25T01:31:20.536Z,51.71
2022-07-25T01:32:22.453Z,51.70
2022-07-25T01:33:24.327Z,51.57
2022-07-25T01:34:26.192Z,51.66
2022-07-25T01:35:28.085Z,51.75
2022-07-25T01:36:29.914Z,51.73
2022-07-25T01:37:32.532Z,51.60
2022-07-25T01:38:34.399Z,51.56
2022-07-25T01:39:36.259Z,51.55
2022-07-25T01:40:38.179Z,51.56
2022-07-25T01:41:40.105Z,51.93
2022-07-25T01:42:42.451Z,52.23
2022-07-25T01:43:44.268Z,52.22
2022-07-25T01:44:46.130Z,52.35
2022-07-25T01:45:48.077Z,52.41
2022-07-25T01:46:50.247Z,52.45
2022-07-25T01:47:52.148Z,52.55
2022-07-25T01:48:54.028Z,52.54
2022-07-25T01:49:55.854Z,52.54
2022-07-25T01:50:58.105Z,52.58
2022-07-25T01:52:01.699Z,52.62
2022-07-25T01:53:03.574Z,52.64
2022-07-25T01:54:10.322Z,52.71
2022-07-25T01:55:09.118Z,52.69
2022-07-25T01:56:11.685Z,52.59
2022-07-25T01:57:14.359Z,52.52
2022-07-25T01:58:16.263Z,52.43
2022-07-25T01:59:19.544Z,52.31
2022-07-25T02:00:22.091Z,52.30
2022-07-25T02:01:24.113Z,52.25
2022-07-25T02:02:26.305Z,52.24
2022-07-25T02:03:28.156Z,52.29
2022-07-25T02:04:30.088Z,52.46
2022-07-25T02:05:31.962Z,52.60
2022-07-25T02:06:33.868Z,52.67
2022-07-25T02:07:35.709Z,52.72
2022-07-25T02:08:37.600Z,52.71
2022-07-25T02:09:39.729Z,52.81
2022-07-25T02:10:41.679Z,52.92
2022-07-25T02:11:43.544Z,53.03
2022-07-25T02:12:45.396Z,52.99
2022-07-25T02:13:47.299Z,52.98
2022-07-25T02:14:49.169Z,53.00
2022-07-25T02:15:50.990Z,53.04
2022-07-25T02:16:52.932Z,53.10
2022-07-25T02:17:54.778Z,53.13
2022-07-25T02:18:56.682Z,53.01
2022-07-25T02:19:58.515Z,53.11
2022-07-25T02:21:00.330Z,53.12
2022-07-25T02:22:02.392Z,53.09
2022-07-25T02:23:04.265Z,53.17
2022-07-25T02:24:06.449Z,53.14
2022-07-25T02:25:08.400Z,53.13
2022-07-25T02:26:11.273Z,53.15
2022-07-25T02:27:13.136Z,53.15
2022-07-25T02:28:14.964Z,53.21
2022-07-25T02:29:16.876Z,53.27
2022-07-25T02:30:19.355Z,53.38
2022-07-25T02:31:21.302Z,53.39
2022-07-25T02:32:23.172Z,53.38
2022-07-25T02:33:24.997Z,53.43
2022-07-25T02:34:26.903Z,53.43
2022-07-25T02:35:28.776Z,53.37
2022-07-25T02:36:31.136Z,53.38
2022-07-25T02:37:33.016Z,53.48
2022-07-25T02:38:34.873Z,53.51
2022-07-25T02:39:36.740Z,53.58
2022-07-25T02:40:38.587Z,53.72
2022-07-25T02:41:40.456Z,53.75
2022-07-25T02:42:42.323Z,53.76
2022-07-25T02:43:44.174Z,53.76
2022-07-25T02:44:46.077Z,53.79
2022-07-25T02:45:48.009Z,53.84
2022-07-25T02:46:49.902Z,53.88
2022-07-25T02:47:51.735Z,53.91
2022-07-25T02:48:53.682Z,53.83
2022-07-25T02:49:55.593Z,53.81
2022-07-25T02:50:57.463Z,53.73
2022-07-25T02:51:59.332Z,53.63
2022-07-25T02:53:01.312Z,53.66
2022-07-25T02:54:03.159Z,53.71
2022-07-25T02:55:09.564Z,53.81
2022-07-25T02:56:09.144Z,53.86
2022-07-25T02:57:11.010Z,53.88
2022-07-25T02:58:12.856Z,53.83
2022-07-25T02:59:15.848Z,53.85
2022-07-25T03:00:19.567Z,53.79
2022-07-25T03:01:21.511Z,53.75
2022-07-25T03:02:23.398Z,53.70
2022-07-25T03:03:25.293Z,53.66
2022-07-25T03:04:27.374Z,53.56
2022-07-25T03:05:29.245Z,53.31
2022-07-25T03:06:31.244Z,53.32
2022-07-25T03:07:33.090Z,53.51
2022-07-25T03:08:35.038Z,53.61
2022-07-25T03:09:36.896Z,53.75
2022-07-25T03:10:38.866Z,53.80
2022-07-25T03:11:40.735Z,53.81
2022-07-25T03:12:42.608Z,53.81
2022-07-25T03:13:44.487Z,53.78
2022-07-25T03:14:46.350Z,53.85
2022-07-25T03:15:48.216Z,53.80
2022-07-25T03:16:50.141Z,53.72
2022-07-25T03:17:52.033Z,53.44
2022-07-25T03:18:53.869Z,53.30
2022-07-25T03:19:55.861Z,53.36
2022-07-25T03:20:57.858Z,53.38
2022-07-25T03:21:59.818Z,53.42
2022-07-25T03:23:01.660Z,53.44
2022-07-25T03:24:03.710Z,53.50
2022-07-25T03:25:05.566Z,53.60
2022-07-25T03:26:09.619Z,53.67
2022-07-25T03:27:11.426Z,53.70
2022-07-25T03:28:13.276Z,53.64
2022-07-25T03:29:15.145Z,53.79
2022-07-25T03:30:18.839Z,53.95
2022-07-25T03:31:20.774Z,53.95
2022-07-25T03:32:22.630Z,53.86
2022-07-25T03:33:24.631Z,53.75
2022-07-25T03:34:26.484Z,53.78
2022-07-25T03:35:28.332Z,53.74
2022-07-25T03:36:30.326Z,53.71
2022-07-25T03:37:32.191Z,53.77
2022-07-25T03:38:34.047Z,53.76
2022-07-25T03:39:35.973Z,53.77
2022-07-25T03:40:38.039Z,53.86
2022-07-25T03:41:39.913Z,53.81
2022-07-25T03:42:41.865Z,53.73
2022-07-25T03:43:43.712Z,53.86
2022-07-25T03:44:45.544Z,53.76
2022-07-25T03:45:47.443Z,53.66
2022-07-25T03:46:49.410Z,53.60
2022-07-25T03:47:51.284Z,53.57
2022-07-25T03:48:53.159Z,53.39
2022-07-25T03:49:55.098Z,53.25
2022-07-25T03:50:57.069Z,53.17
2022-07-25T03:51:58.858Z,53.07
2022-07-25T03:53:00.717Z,52.91
2022-07-25T03:54:02.760Z,52.74
2022-07-25T03:55:04.756Z,52.61
2022-07-25T03:56:06.911Z,52.54
2022-07-25T03:57:08.833Z,52.51
2022-07-25T03:58:10.620Z,52.48
2022-07-25T03:59:12.461Z,52.42
2022-07-25T04:00:15.305Z,52.39
2022-07-25T04:01:17.243Z,52.34
2022-07-25T04:02:21.143Z,52.33
2022-07-25T04:03:22.997Z,52.40
2022-07-25T04:04:24.907Z,52.35
2022-07-25T04:05:26.761Z,52.47
2022-07-25T04:06:30.135Z,52.47
2022-07-25T04:07:32.030Z,52.31
2022-07-25T04:08:33.796Z,52.23
2022-07-25T04:09:35.632Z,52.28
2022-07-25T04:10:37.548Z,52.38
2022-07-25T04:11:39.390Z,52.49
2022-07-25T04:12:41.285Z,52.25
2022-07-25T04:13:43.119Z,52.25
2022-07-25T04:14:44.975Z,52.16
2022-07-25T04:15:46.839Z,52.13
2022-07-25T04:16:48.847Z,52.18
2022-07-25T04:17:51.496Z,52.26
2022-07-25T04:18:53.735Z,52.31
2022-07-25T04:19:55.568Z,52.37
2022-07-25T04:20:58.528Z,52.35
2022-07-25T04:22:00.396Z,52.41
2022-07-25T04:23:02.354Z,52.47
2022-07-25T04:24:04.391Z,52.46
2022-07-25T04:25:06.462Z,52.45
2022-07-25T04:26:09.816Z,52.46
2022-07-25T04:27:11.640Z,52.39
2022-07-25T04:28:13.417Z,52.39
2022-07-25T04:29:15.264Z,52.58
2022-07-25T04:30:24.488Z,52.71
2022-07-25T04:31:21.122Z,52.85
2022-07-25T04:32:23.742Z,52.80
2022-07-25T04:33:25.707Z,52.82
2022-07-25T04:34:27.552Z,52.87
2022-07-25T04:35:29.426Z,52.85
2022-07-25T04:36:31.377Z,52.58
2022-07-25T04:37:33.246Z,52.44
2022-07-25T04:38:35.168Z,52.77
2022-07-25T04:39:37.025Z,52.83
2022-07-25T04:40:38.971Z,52.78
2022-07-25T04:41:40.957Z,52.46
2022-07-25T04:42:42.814Z,52.34
2022-07-25T04:43:48.523Z,52.28
2022-07-25T04:44:48.375Z,52.20
2022-07-25T04:45:50.226Z,52.12
2022-07-25T04:46:52.162Z,52.01
2022-07-25T04:47:53.990Z,51.96
2022-07-25T04:48:55.975Z,51.93
2022-07-25T04:49:57.819Z,51.96
2022-07-25T04:50:59.758Z,51.93
2022-07-25T04:52:01.592Z,51.98
2022-07-25T04:53:03.428Z,51.95
2022-07-25T04:54:05.531Z,52.07
2022-07-25T04:55:07.585Z,52.07
2022-07-25T04:56:09.795Z,52.08
2022-07-25T04:57:11.649Z,52.09
2022-07-25T04:58:13.506Z,52.06
2022-07-25T04:59:15.385Z,51.99
2022-07-25T05:00:17.641Z,51.94
2022-07-25T05:01:19.738Z,51.81
2022-07-25T05:02:21.686Z,51.88
2022-07-25T05:03:23.457Z,51.87
2022-07-25T05:04:25.367Z,51.95
2022-07-25T05:05:27.215Z,51.88
2022-07-25T05:06:29.366Z,51.78
2022-07-25T05:07:31.195Z,51.77
2022-07-25T05:08:33.090Z,51.84
2022-07-25T05:09:34.963Z,52.13
2022-07-25T05:10:36.898Z,52.38
2022-07-25T05:11:42.482Z,52.25
2022-07-25T05:12:42.513Z,52.15
2022-07-25T05:13:44.339Z,52.00
2022-07-25T05:14:46.211Z,51.87
2022-07-25T05:15:48.088Z,51.74
2022-07-25T05:16:50.226Z,51.64
2022-07-25T05:17:52.147Z,51.65
2022-07-25T05:18:54.029Z,51.72
2022-07-25T05:19:55.921Z,51.46
2022-07-25T05:20:57.907Z,51.96
2022-07-25T05:22:00.096Z,51.96
2022-07-25T05:23:02.031Z,51.59
2022-07-25T05:24:04.637Z,51.42
2022-07-25T05:25:06.768Z,52.11
2022-07-25T05:26:08.932Z,51.89
2022-07-25T05:27:10.826Z,52.04
2022-07-25T05:28:12.890Z,52.14
2022-07-25T05:29:14.763Z,52.15
2022-07-25T05:30:17.789Z,52.09
2022-07-25T05:31:19.708Z,52.13
2022-07-25T05:32:21.605Z,52.01
2022-07-25T05:33:23.500Z,51.76
2022-07-25T05:34:25.364Z,51.72
2022-07-25T05:35:27.278Z,51.76
2022-07-25T05:36:29.441Z,51.61
2022-07-25T05:37:31.330Z,51.63
2022-07-25T05:38:33.183Z,51.62
2022-07-25T05:39:35.063Z,51.56
2022-07-25T05:40:37.067Z,51.55
2022-07-25T05:41:38.950Z,51.58
2022-07-25T05:42:41.622Z,51.62
2022-07-25T05:43:43.516Z,52.13
2022-07-25T05:44:45.406Z,52.30
2022-07-25T05:45:47.472Z,51.95
2022-07-25T05:46:49.443Z,51.98
2022-07-25T05:47:51.345Z,51.67
2022-07-25T05:48:53.244Z,51.47
2022-07-25T05:49:55.070Z,51.50
2022-07-25T05:50:57.275Z,51.56
2022-07-25T05:51:59.156Z,51.35
2022-07-25T05:53:01.040Z,52.11
2022-07-25T05:54:03.120Z,51.71
2022-07-25T05:55:05.063Z,51.71
2022-07-25T05:56:07.630Z,52.36
2022-07-25T05:57:09.495Z,52.76
2022-07-25T05:58:11.373Z,52.42
2022-07-25T05:59:14.284Z,52.49
2022-07-25T06:00:16.447Z,52.84
2022-07-25T06:01:18.550Z,52.35
2022-07-25T06:02:20.522Z,52.71
2022-07-25T06:03:22.479Z,52.35
2022-07-25T06:04:27.282Z,53.10
2022-07-25T06:05:28.050Z,53.40
2022-07-25T06:06:29.945Z,53.84
2022-07-25T06:07:31.834Z,53.32
2022-07-25T06:08:33.696Z,53.72
2022-07-25T06:09:35.555Z,53.78
2022-07-25T06:10:37.507Z,53.68
2022-07-25T06:11:51.076Z,53.89
2022-07-25T06:12:43.043Z,53.77
2022-07-25T06:13:45.332Z,53.42
2022-07-25T06:14:47.270Z,53.06
2022-07-25T06:15:49.714Z,52.63
2022-07-25T06:16:52.365Z,52.54
2022-07-25T06:17:54.239Z,52.44
2022-07-25T06:18:56.678Z,52.49
2022-07-25T06:19:58.558Z,52.59
2022-07-25T06:21:00.562Z,52.47
2022-07-25T06:22:02.481Z,53.08
2022-07-25T06:23:04.336Z,52.53
2022-07-25T06:24:06.522Z,52.28
2022-07-25T06:25:08.562Z,52.10
2022-07-25T06:26:10.820Z,52.10
2022-07-25T06:27:14.966Z,51.86
2022-07-25T06:28:18.205Z,51.89
2022-07-25T06:29:20.034Z,51.80
2022-07-25T06:30:22.442Z,52.17
2022-07-25T06:31:24.447Z,53.41
2022-07-25T06:32:26.293Z,54.01
2022-07-25T06:33:28.173Z,53.76
2022-07-25T06:34:29.983Z,53.00
2022-07-25T06:35:31.858Z,52.54
2022-07-25T06:36:34.121Z,52.59
2022-07-25T06:37:36.051Z,52.88
2022-07-25T06:38:37.920Z,52.70
2022-07-25T06:39:43.805Z,53.05
2022-07-25T06:40:43.533Z,53.35
2022-07-25T06:41:45.367Z,52.93
2022-07-25T06:42:47.482Z,52.77
2022-07-25T06:43:49.339Z,53.03
2022-07-25T06:44:51.225Z,53.35
2022-07-25T06:45:53.267Z,53.49
2022-07-25T06:46:55.307Z,53.72
2022-07-25T06:47:57.280Z,53.84
2022-07-25T06:48:59.223Z,53.82
2022-07-25T06:50:01.150Z,53.61
2022-07-25T06:51:02.982Z,53.39
2022-07-25T06:52:04.791Z,53.37
2022-07-25T06:53:06.732Z,54.14
2022-07-25T06:54:09.181Z,54.02
2022-07-25T06:55:11.381Z,54.14
2022-07-25T06:56:17.599Z,53.80
2022-07-25T06:57:17.147Z,53.75
2022-07-25T06:58:19.014Z,53.84
2022-07-25T06:59:22.668Z,53.67
2022-07-25T07:00:24.648Z,53.62
2022-07-25T07:01:26.759Z,53.57
2022-07-25T07:02:28.675Z,53.83
2022-07-25T07:03:30.574Z,54.01
2022-07-25T07:04:32.402Z,53.83
2022-07-25T07:05:34.253Z,53.67
2022-07-25T07:06:37.006Z,53.80
2022-07-25T07:07:38.877Z,53.51
2022-07-25T07:08:40.794Z,53.35
2022-07-25T07:09:42.711Z,53.20
2022-07-25T07:10:44.601Z,53.26
2022-07-25T07:11:46.462Z,53.14
2022-07-25T07:12:48.289Z,53.19
2022-07-25T07:13:50.162Z,53.43
2022-07-25T07:14:52.041Z,53.07
2022-07-25T07:15:53.934Z,53.47
2022-07-25T07:16:55.875Z,52.89
2022-07-25T07:17:57.759Z,53.12
2022-07-25T07:18:59.640Z,53.36
2022-07-25T07:20:01.471Z,52.81
2022-07-25T07:21:03.314Z,52.74
2022-07-25T07:22:05.282Z,52.53
2022-07-25T07:23:08.953Z,53.23
2022-07-25T07:24:23.876Z,53.29
2022-07-25T07:25:15.624Z,53.58
2022-07-25T07:26:19.288Z,53.91
2022-07-25T07:27:21.129Z,53.58
2022-07-25T07:28:22.973Z,52.99
2022-07-25T07:29:24.876Z,52.95
2022-07-25T07:30:50.591Z,52.93
2022-07-25T07:31:31.986Z,53.56
2022-07-25T07:32:34.002Z,53.44
2022-07-25T07:33:35.843Z,53.67
2022-07-25T07:34:37.722Z,53.97
2022-07-25T07:35:39.560Z,53.79
2022-07-25T07:36:41.397Z,53.93
2022-07-25T07:37:43.894Z,54.08
2022-07-25T07:38:45.754Z,54.07
2022-07-25T07:39:47.647Z,54.05
2022-07-25T07:40:49.611Z,53.87
2022-07-25T07:41:51.819Z,53.74
2022-07-25T07:42:53.672Z,53.96
2022-07-25T07:43:55.616Z,54.18
2022-07-25T07:44:57.490Z,54.02
2022-07-25T07:45:59.543Z,54.05
2022-07-25T07:47:01.520Z,54.29
2022-07-25T07:48:03.398Z,54.28
2022-07-25T07:49:05.556Z,54.35
2022-07-25T07:50:07.970Z,54.27
2022-07-25T07:51:09.834Z,53.91
2022-07-25T07:52:11.665Z,54.16
2022-07-25T07:53:13.525Z,54.31
2022-07-25T07:54:15.396Z,54.10
2022-07-25T07:55:17.265Z,53.90
2022-07-25T07:56:20.242Z,53.79
2022-07-25T07:57:22.090Z,53.39
2022-07-25T07:58:23.922Z,53.12
2022-07-25T07:59:25.770Z,53.14
2022-07-25T08:00:29.489Z,53.77
2022-07-25T08:01:31.691Z,53.31
2022-07-25T08:02:33.723Z,53.52
2022-07-25T08:03:35.793Z,53.69
2022-07-25T08:04:37.650Z,53.15
2022-07-25T08:05:39.558Z,53.31
2022-07-25T08:06:41.524Z,53.54
2022-07-25T08:07:43.376Z,53.56
2022-07-25T08:08:45.238Z,53.20
2022-07-25T08:09:47.104Z,53.04
2022-07-25T08:10:49.212Z,52.87
2022-07-25T08:11:51.083Z,52.75
2022-07-25T08:12:53.001Z,52.72
2022-07-25T08:13:54.812Z,52.80
2022-07-25T08:14:56.694Z,52.73
2022-07-25T08:15:58.653Z,52.81
2022-07-25T08:17:00.560Z,52.78
2022-07-25T08:18:02.391Z,52.80
2022-07-25T08:19:04.611Z,52.70
2022-07-25T08:20:27.948Z,52.59
2022-07-25T08:21:11.103Z,52.83
2022-07-25T08:22:12.956Z,52.80
2022-07-25T08:23:15.129Z,52.65
2022-07-25T08:24:17.002Z,52.59
2022-07-25T08:25:18.864Z,52.66
2022-07-25T08:26:22.851Z,52.61
2022-07-25T08:27:24.735Z,52.61
2022-07-25T08:28:26.578Z,52.78
2022-07-25T08:29:28.471Z,52.77
2022-07-25T08:30:31.287Z,52.64
2022-07-25T08:31:33.257Z,52.71
2022-07-25T08:32:35.154Z,52.58
2022-07-25T08:33:37.007Z,52.60
2022-07-25T08:34:38.891Z,52.62
2022-07-25T08:35:40.873Z,52.77
2022-07-25T08:36:42.872Z,53.05
2022-07-25T08:37:44.710Z,53.27
2022-07-25T08:38:46.573Z,53.01
2022-07-25T08:39:48.423Z,53.07
2022-07-25T08:40:50.401Z,53.07
2022-07-25T08:41:52.297Z,53.04
2022-07-25T08:42:54.155Z,52.80
2022-07-25T08:43:55.997Z,52.65
2022-07-25T08:44:57.878Z,52.63
2022-07-25T08:45:59.747Z,52.35
2022-07-25T08:47:01.597Z,52.23
2022-07-25T08:48:03.434Z,52.16
2022-07-25T08:49:05.294Z,52.26
2022-07-25T08:50:07.614Z,52.25
2022-07-25T08:51:09.605Z,52.22
2022-07-25T08:52:11.549Z,51.91
2022-07-25T08:54:17.043Z,52.01
2022-07-25T08:55:18.864Z,51.85
2022-07-25T08:56:21.591Z,51.73
2022-07-25T08:57:23.509Z,51.68
2022-07-25T08:58:25.349Z,51.50
2022-07-25T08:59:27.191Z,51.36
2022-07-25T09:00:30.916Z,51.34
2022-07-25T09:01:35.030Z,51.47
2022-07-25T09:02:36.822Z,51.55
2022-07-25T09:03:38.681Z,51.71
2022-07-25T09:04:40.552Z,51.80
2022-07-25T09:05:42.484Z,51.74
2022-07-25T09:06:44.447Z,51.81
2022-07-25T09:07:48.185Z,51.90
2022-07-25T09:08:50.068Z,51.93
2022-07-25T09:09:51.931Z,51.75
2022-07-25T09:10:53.899Z,51.75
2022-07-25T09:11:55.753Z,51.67
2022-07-25T09:12:57.670Z,51.36
2022-07-25T09:13:59.522Z,51.22
2022-07-25T09:15:01.371Z,51.13
2022-07-25T09:16:03.585Z,51.07
2022-07-25T09:17:05.371Z,50.99
2022-07-25T09:18:08.759Z,51.11
2022-07-25T09:19:11.935Z,51.06
2022-07-25T09:20:18.401Z,51.02
2022-07-25T09:21:18.750Z,50.94
2022-07-25T09:22:20.583Z,50.72
2022-07-25T09:23:22.509Z,50.81
2022-07-25T09:24:24.331Z,50.81
2022-07-25T09:25:26.166Z,50.13
2022-07-25T09:26:29.838Z,49.75
2022-07-25T09:27:32.108Z,49.94
2022-07-25T09:28:33.982Z,49.80
2022-07-25T09:29:35.835Z,49.75
2022-07-25T09:30:37.670Z,49.99
2022-07-25T09:31:39.605Z,49.96
2022-07-25T09:32:41.462Z,49.78
2022-07-25T09:33:43.396Z,49.89
2022-07-25T09:34:45.218Z,50.06
2022-07-25T09:35:47.086Z,50.21
2022-07-25T09:36:49.099Z,50.07
2022-07-25T09:37:50.946Z,49.97
2022-07-25T09:38:52.851Z,50.06
2022-07-25T09:39:54.682Z,49.93
2022-07-25T09:40:56.857Z,49.80
2022-07-25T09:41:58.679Z,49.73
2022-07-25T09:43:00.508Z,49.81
2022-07-25T09:44:02.531Z,49.86
2022-07-25T09:45:04.367Z,50.02
2022-07-25T09:46:06.394Z,49.83
2022-07-25T09:47:08.301Z,49.72
2022-07-25T09:48:10.169Z,49.96
2022-07-25T09:49:12.093Z,49.83
2022-07-25T09:50:15.230Z,49.90
2022-07-25T09:51:17.061Z,49.82
2022-07-25T09:52:19.001Z,49.95
2022-07-25T09:53:20.890Z,50.01
2022-07-25T09:54:22.809Z,50.10
2022-07-25T09:55:24.668Z,50.06
2022-07-25T09:56:26.841Z,49.94
2022-07-25T09:57:28.692Z,49.81
2022-07-25T09:58:30.555Z,49.44
2022-07-25T09:59:32.459Z,49.28
2022-07-25T10:00:34.386Z,49.04
2022-07-25T10:01:36.341Z,48.94
2022-07-25T10:02:38.637Z,48.55
2022-07-25T10:03:40.540Z,48.92
2022-07-25T10:04:42.466Z,48.85
2022-07-25T10:05:44.306Z,48.02
2022-07-25T10:06:46.256Z,48.24
2022-07-25T10:07:48.160Z,48.06
2022-07-25T10:08:50.019Z,47.63
2022-07-25T10:09:51.910Z,47.24
2022-07-25T10:10:53.781Z,46.32
2022-07-25T10:11:55.643Z,46.80
2022-07-25T10:12:57.507Z,46.90
2022-07-25T10:13:59.365Z,46.83
2022-07-25T10:15:01.236Z,46.55
2022-07-25T10:16:03.213Z,46.42
2022-07-25T10:17:05.259Z,46.95
2022-07-25T10:18:07.126Z,46.96
2022-07-25T10:19:08.951Z,46.66
2022-07-25T10:20:11.509Z,46.87
2022-07-25T10:21:25.547Z,46.82
2022-07-25T10:22:25.892Z,46.78
2022-07-25T10:23:21.342Z,47.00
2022-07-25T10:24:23.189Z,47.23
2022-07-25T10:25:25.119Z,47.33
2022-07-25T10:26:28.807Z,47.39
2022-07-25T10:27:30.668Z,47.27
2022-07-25T10:28:32.531Z,47.49
2022-07-25T10:29:34.365Z,47.55
2022-07-25T10:30:36.344Z,47.62
2022-07-25T10:31:38.240Z,47.49
2022-07-25T10:32:40.120Z,47.66
2022-07-25T10:33:41.945Z,47.73
2022-07-25T10:34:43.821Z,47.83
2022-07-25T10:35:45.726Z,47.57
2022-07-25T10:36:47.663Z,47.64
2022-07-25T10:37:49.534Z,47.66
2022-07-25T10:38:51.471Z,47.65
2022-07-25T10:39:53.322Z,47.36
2022-07-25T10:40:55.189Z,47.35
2022-07-25T10:41:57.028Z,47.48
2022-07-25T10:42:58.865Z,47.53
2022-07-25T10:44:00.738Z,47.58
2022-07-25T10:45:02.668Z,47.63
2022-07-25T10:46:04.730Z,47.24
2022-07-25T10:47:07.975Z,47.19
2022-07-25T10:48:09.809Z,47.20
2022-07-25T10:49:12.358Z,47.25
2022-07-25T10:50:34.377Z,47.23
2022-07-25T10:51:20.311Z,47.31
2022-07-25T10:52:22.182Z,47.20
2022-07-25T10:53:24.028Z,47.23
2022-07-25T10:54:26.432Z,47.15
2022-07-25T10:55:28.278Z,47.08
2022-07-25T10:56:30.484Z,47.19
2022-07-25T10:57:32.453Z,47.17
2022-07-25T10:58:34.367Z,47.26
2022-07-25T10:59:36.277Z,47.27
2022-07-25T11:00:38.112Z,47.18
2022-07-25T11:01:40.214Z,47.27
2022-07-25T11:02:42.114Z,47.34
2022-07-25T11:03:44.028Z,47.26
2022-07-25T11:04:45.901Z,47.12
2022-07-25T11:05:47.816Z,46.91
2022-07-25T11:06:50.346Z,46.83
2022-07-25T11:08:19.175Z,46.88
2022-07-25T11:08:55.857Z,46.82
2022-07-25T11:09:57.812Z,46.88
2022-07-25T11:10:59.643Z,46.90
2022-07-25T11:12:01.527Z,46.59
2022-07-25T11:13:03.390Z,46.65
2022-07-25T11:14:05.268Z,46.81
2022-07-25T11:15:07.144Z,46.82
2022-07-25T11:16:09.252Z,46.47
2022-07-25T11:17:11.201Z,46.54
2022-07-25T11:18:13.129Z,46.43
2022-07-25T11:19:15.009Z,46.33
2022-07-25T11:20:18.195Z,46.38
2022-07-25T11:21:20.431Z,46.39
2022-07-25T11:22:23.030Z,46.40
2022-07-25T11:23:24.914Z,46.65
2022-07-25T11:24:27.069Z,46.92
2022-07-25T11:25:28.961Z,46.95
2022-07-25T11:26:31.202Z,46.89
2022-07-25T11:27:33.156Z,46.78
2022-07-25T11:28:34.983Z,47.04
2022-07-25T11:29:36.935Z,47.24
2022-07-25T11:30:39.474Z,46.88
2022-07-25T11:31:41.381Z,47.05
2022-07-25T11:32:43.303Z,47.12
2022-07-25T11:33:45.515Z,47.25
2022-07-25T11:34:47.372Z,47.26
2022-07-25T11:35:49.255Z,47.31
2022-07-25T11:36:51.199Z,47.36
2022-07-25T11:37:53.133Z,47.38
2022-07-25T11:38:55.174Z,47.31
2022-07-25T11:39:57.079Z,46.96
2022-07-25T11:40:59.715Z,46.94
2022-07-25T11:42:01.682Z,46.54
2022-07-25T11:43:03.560Z,46.45
2022-07-25T11:44:05.436Z,46.65
2022-07-25T11:45:07.288Z,46.68
2022-07-25T11:46:09.538Z,46.40
2022-07-25T11:47:11.416Z,46.05
2022-07-25T11:48:13.314Z,46.38
2022-07-25T11:49:15.271Z,46.56
2022-07-25T11:50:18.916Z,46.87
2022-07-25T11:51:20.782Z,46.69
2022-07-25T11:52:22.630Z,46.84
2022-07-25T11:53:24.602Z,46.76
2022-07-25T11:54:26.434Z,46.60
2022-07-25T11:55:28.258Z,46.91
2022-07-25T11:56:42.619Z,46.75
2022-07-25T11:57:33.935Z,46.65
2022-07-25T11:58:35.823Z,46.37
2022-07-25T11:59:37.699Z,45.86
2022-07-25T12:00:39.656Z,45.30
2022-07-25T12:01:41.701Z,45.53
2022-07-25T12:02:43.955Z,46.03
2022-07-25T12:03:46.038Z,45.87
2022-07-25T12:04:47.905Z,45.45
2022-07-25T12:05:49.828Z,45.16
2022-07-25T12:06:51.797Z,45.50
2022-07-25T12:07:53.654Z,45.73
2022-07-25T12:08:55.584Z,45.55
2022-07-25T12:09:57.544Z,45.38
2022-07-25T12:11:00.545Z,45.74
2022-07-25T12:12:02.492Z,45.63
2022-07-25T12:13:04.381Z,45.70
2022-07-25T12:14:06.294Z,45.79
2022-07-25T12:15:08.162Z,45.87
2022-07-25T12:16:10.653Z,45.96
2022-07-25T12:17:12.545Z,45.87
2022-07-25T12:18:14.429Z,45.72
2022-07-25T12:19:16.336Z,45.78
2022-07-25T12:20:19.024Z,45.97
2022-07-25T12:21:21.178Z,45.86
2022-07-25T12:22:23.018Z,45.95
2022-07-25T12:23:24.889Z,45.85
2022-07-25T12:24:26.773Z,45.77
2022-07-25T12:25:30.988Z,45.91
2022-07-25T12:26:33.154Z,46.05
2022-07-25T12:27:35.120Z,46.04
2022-07-25T12:28:37.006Z,46.22
2022-07-25T12:29:38.875Z,46.36
2022-07-25T12:30:40.787Z,46.38
2022-07-25T12:31:42.658Z,46.54
2022-07-25T12:32:44.526Z,46.60
2022-07-25T12:33:46.365Z,46.63
2022-07-25T12:34:48.277Z,46.65
2022-07-25T12:35:50.165Z,46.59
2022-07-25T12:36:52.242Z,46.51
2022-07-25T12:37:54.116Z,46.76
2022-07-25T12:38:55.976Z,46.72
2022-07-25T12:39:58.029Z,46.90
2022-07-25T12:41:00.306Z,46.94
2022-07-25T12:42:02.276Z,46.99
2022-07-25T12:43:04.670Z,47.07
2022-07-25T12:44:06.511Z,47.08
2022-07-25T12:45:08.443Z,47.04
2022-07-25T12:46:10.607Z,46.97
2022-07-25T12:47:12.461Z,47.14
2022-07-25T12:48:14.326Z,47.20
2022-07-25T12:49:16.180Z,47.26
2022-07-25T12:50:19.249Z,47.38
2022-07-25T12:51:21.085Z,47.60
2022-07-25T12:52:22.978Z,47.69
2022-07-25T12:53:24.848Z,47.63
2022-07-25T12:54:27.981Z,47.77
2022-07-25T12:55:29.901Z,47.77
2022-07-25T12:56:31.974Z,47.74
2022-07-25T12:57:33.807Z,47.76
2022-07-25T12:58:35.729Z,47.89
2022-07-25T12:59:37.575Z,48.15
2022-07-25T13:00:39.716Z,48.14
2022-07-25T13:01:41.658Z,48.38
2022-07-25T13:02:43.518Z,48.42
2022-07-25T13:03:45.441Z,48.53
2022-07-25T13:04:47.314Z,48.76
2022-07-25T13:05:49.227Z,48.78
2022-07-25T13:06:51.387Z,48.86
2022-07-25T13:07:53.267Z,48.89
2022-07-25T13:08:55.077Z,49.00
2022-07-25T13:09:56.912Z,48.84
2022-07-25T13:10:58.905Z,48.68
2022-07-25T13:12:00.749Z,48.51
2022-07-25T13:13:02.591Z,48.42
2022-07-25T13:14:04.534Z,48.30
2022-07-25T13:15:06.419Z,48.39
2022-07-25T13:16:08.681Z,48.69
2022-07-25T13:17:10.563Z,48.82
2022-07-25T13:18:12.462Z,48.76
2022-07-25T13:19:14.327Z,48.90
2022-07-25T13:20:17.068Z,49.03